4S1

Gold Beach Municipal Airport

Gold Beach, Oregon, USA
METAR K4S1 170115Z AUTO 21006KT 1 3/4SM BR OVC003 11/09 A2990 RMK AO1
Observed Flight Rules
Dec-17 @ 01:15 UTC (17 minutes ago) Instrument Flight Rules
Wind Visibility Clouds Conditions
210° at 6 knots 1 3/4 miles
  • Overcast at 300' AGL
  • Mist
Temperatures Readings
Current 11°C / 52°F
Dewpoint 9°C / 48°F
Humidity 88%
Altimeter 29.9" Hg
Pressure 1013 hPa
Elevation 5
METAR K4S1 170115Z AUTO 21006KT 1 3/4SM BR OVC003 11/09 A2990 RMK AO1
Observed Flight Rules
Dec-17 @ 01:15 UTC
(17 minutes ago)
LIFR
Wind Visibility
210° at 6 knots 1 3/4 miles
Clouds
  • Overcast at 300' AGL
Conditions
  • Mist
Temperature Dewpoint
11°C / 52°F 9°C / 48°F
Humidity Altimeter Pressure
88% 29.9" Hg 1013 hPa